createdAt,value
2023-09-23T00:01:11.978Z,100717.50
2023-09-23T00:03:38.760Z,100719.63
2023-09-23T00:06:05.962Z,100712.91
2023-09-23T00:08:32.762Z,100716.88
2023-09-23T00:10:59.270Z,100725.47
2023-09-23T00:13:26.305Z,100725.28
2023-09-23T00:15:53.758Z,100729.69
2023-09-23T00:18:20.432Z,100739.00
2023-09-23T00:20:47.767Z,100744.66
2023-09-23T00:23:15.168Z,100743.72
2023-09-23T00:25:42.183Z,100744.47
2023-09-23T00:28:12.442Z,100746.25
2023-09-23T00:30:39.849Z,100754.09
2023-09-23T00:33:07.254Z,100759.44
2023-09-23T00:35:37.565Z,100759.22
2023-09-23T00:38:05.565Z,100752.19
2023-09-23T00:40:33.981Z,100757.44
2023-09-23T00:43:07.920Z,100754.19
2023-09-23T00:45:35.387Z,100761.34
2023-09-23T00:48:02.633Z,100758.50
2023-09-23T00:50:30.773Z,100757.56
2023-09-23T00:52:58.216Z,100753.78
2023-09-23T00:55:27.623Z,100752.94
2023-09-23T00:57:54.454Z,100751.91
2023-09-23T01:00:28.472Z,100749.16
2023-09-23T01:02:59.360Z,100744.97
2023-09-23T01:05:31.294Z,100750.19
2023-09-23T01:08:12.799Z,100744.97
2023-09-23T01:10:40.419Z,100748.75
2023-09-23T01:13:17.426Z,100751.91
2023-09-23T01:15:44.437Z,100759.22
2023-09-23T01:18:14.627Z,100760.38
2023-09-23T01:20:44.243Z,100759.94
2023-09-23T01:23:11.931Z,100762.75
2023-09-23T01:25:39.048Z,100758.66
2023-09-23T01:28:12.438Z,100764.22
2023-09-23T01:30:41.615Z,100764.50
2023-09-23T01:33:10.179Z,100769.03
2023-09-23T01:35:37.735Z,100770.91
2023-09-23T01:38:05.062Z,100776.97
2023-09-23T01:40:32.787Z,100782.13
2023-09-23T01:42:59.435Z,100775.75
2023-09-23T01:45:29.752Z,100777.59
2023-09-23T01:47:58.308Z,100784.53
2023-09-23T01:50:25.906Z,100791.44
2023-09-23T01:52:52.840Z,100789.78
2023-09-23T01:55:19.646Z,100790.63
2023-09-23T01:57:49.466Z,100791.66
2023-09-23T02:00:19.485Z,100790.06
2023-09-23T02:02:46.600Z,100797.28
2023-09-23T02:05:13.450Z,100799.19
2023-09-23T02:07:41.260Z,100799.38
2023-09-23T02:10:12.529Z,100796.97
2023-09-23T02:12:39.004Z,100799.66
2023-09-23T02:15:07.457Z,100804.19
2023-09-23T02:17:37.335Z,100807.81
2023-09-23T02:20:25.201Z,100808.78
2023-09-23T02:22:56.535Z,100812.31
2023-09-23T02:25:27.029Z,100815.88
2023-09-23T02:27:56.075Z,100815.03
2023-09-23T02:30:23.197Z,100815.22
2023-09-23T02:32:49.940Z,100813.63
2023-09-23T02:35:17.672Z,100812.91
2023-09-23T02:37:46.504Z,100823.47
2023-09-23T02:40:16.507Z,100827.13
2023-09-23T02:42:46.675Z,100825.44
2023-09-23T02:45:15.173Z,100822.06
2023-09-23T02:47:46.243Z,100829.00
2023-09-23T02:50:15.074Z,100831.50
2023-09-23T02:52:43.333Z,100824.31
2023-09-23T02:55:16.024Z,100819.63
2023-09-23T02:57:49.864Z,100818.69
2023-09-23T03:00:31.348Z,100827.28
2023-09-23T03:03:00.511Z,100826.34
2023-09-23T03:05:33.140Z,100833.25
2023-09-23T03:08:01.815Z,100833.25
2023-09-23T03:10:40.826Z,100834.00
2023-09-23T03:13:08.623Z,100832.34
2023-09-23T03:15:45.973Z,100847.94
2023-09-23T03:18:16.447Z,100850.66
2023-09-23T03:20:43.556Z,100850.22
2023-09-23T03:23:13.666Z,100849.56
2023-09-23T03:25:47.850Z,100847.13
2023-09-23T03:28:18.376Z,100838.72
2023-09-23T03:30:49.617Z,100852.00
2023-09-23T03:33:21.569Z,100840.81
2023-09-23T03:35:48.697Z,100846.97
2023-09-23T03:38:16.607Z,100847.91
2023-09-23T03:40:54.078Z,100847.16
2023-09-23T03:43:22.052Z,100850.81
2023-09-23T03:45:49.013Z,100857.81
2023-09-23T03:48:16.692Z,100862.19
2023-09-23T03:50:43.618Z,100858.75
2023-09-23T03:53:12.943Z,100853.69
2023-09-23T03:55:40.148Z,100866.97
2023-09-23T03:58:07.258Z,100862.78
2023-09-23T04:00:37.720Z,100867.16
2023-09-23T04:03:04.623Z,100868.09
2023-09-23T04:05:32.838Z,100865.50
2023-09-23T04:07:59.725Z,100881.00
2023-09-23T04:10:27.988Z,100889.78
2023-09-23T04:12:57.986Z,100890.72
2023-09-23T04:15:25.845Z,100902.13
2023-09-23T04:17:53.266Z,100895.22
2023-09-23T04:20:19.987Z,100903.13
2023-09-23T04:22:49.976Z,100898.09
2023-09-23T04:25:16.633Z,100898.25
2023-09-23T04:27:43.352Z,100907.88
2023-09-23T04:30:12.883Z,100908.91
2023-09-23T04:32:41.666Z,100912.56
2023-09-23T04:35:14.099Z,100913.50
2023-09-23T04:37:41.151Z,100918.91
2023-09-23T04:40:12.626Z,100920.75
2023-09-23T04:42:40.921Z,100925.22
2023-09-23T04:45:09.284Z,100929.75
2023-09-23T04:47:36.836Z,100930.56
2023-09-23T04:50:06.701Z,100934.13
2023-09-23T04:52:33.405Z,100943.81
2023-09-23T04:55:00.932Z,100936.81
2023-09-23T04:57:30.859Z,100954.19
2023-09-23T04:59:58.928Z,100940.38
2023-09-23T05:02:27.621Z,100948.13
2023-09-23T05:04:55.260Z,100945.59
2023-09-23T05:07:22.808Z,100954.41
2023-09-23T05:09:50.601Z,100943.00
2023-09-23T05:12:17.639Z,100942.88
2023-09-23T05:14:44.539Z,100949.72
2023-09-23T05:17:16.006Z,100967.84
2023-09-23T05:19:43.774Z,100972.91
2023-09-23T05:22:18.326Z,100975.31
2023-09-23T05:24:54.590Z,100978.50
2023-09-23T05:27:31.042Z,100980.94
2023-09-23T05:29:59.290Z,100985.06
2023-09-23T05:33:43.184Z,100988.44
2023-09-23T05:36:14.903Z,100988.44
2023-09-23T05:39:11.525Z,100988.38
2023-09-23T05:41:44.101Z,100996.94
2023-09-23T05:44:14.320Z,100990.03
2023-09-23T05:46:47.764Z,100995.81
2023-09-23T05:49:17.971Z,101003.50
2023-09-23T05:51:46.938Z,101010.16
2023-09-23T05:54:24.389Z,101000.44
2023-09-23T05:56:51.576Z,101016.88
2023-09-23T05:59:26.848Z,101020.97
2023-09-23T06:01:56.084Z,101025.31
2023-09-23T06:04:23.918Z,101037.34
2023-09-23T06:06:51.907Z,101043.25
2023-09-23T06:09:19.991Z,101046.44
2023-09-23T06:11:47.179Z,101052.25
2023-09-23T06:14:15.914Z,101058.13
2023-09-23T06:17:09.209Z,101056.16
2023-09-23T06:19:36.358Z,101053.44
2023-09-23T06:22:03.702Z,101061.75
2023-09-23T06:24:32.369Z,101060.56
2023-09-23T06:27:36.832Z,101065.50
2023-09-23T06:33:00.696Z,101064.66
2023-09-23T06:35:30.806Z,101071.47
2023-09-23T06:37:59.397Z,101070.44
2023-09-23T06:40:27.259Z,101068.47
2023-09-23T06:42:54.982Z,101075.97
2023-09-23T06:46:14.757Z,101085.31
2023-09-23T06:48:52.168Z,101086.41
2023-09-23T06:51:18.628Z,101090.53
2023-09-23T06:53:46.954Z,101104.19
2023-09-23T06:56:13.946Z,101099.09
2023-09-23T06:58:41.037Z,101098.41
2023-09-23T07:01:07.533Z,101100.56
2023-09-23T07:03:34.113Z,101112.72
2023-09-23T07:06:00.839Z,101104.84
2023-09-23T07:08:27.526Z,101109.16
2023-09-23T07:10:56.276Z,101117.00
2023-09-23T07:13:22.854Z,101126.19
2023-09-23T07:15:49.331Z,101122.03
2023-09-23T07:18:15.934Z,101124.34
2023-09-23T07:20:43.983Z,101133.78
2023-09-23T07:23:10.583Z,101132.81
2023-09-23T07:25:41.642Z,101140.38
2023-09-23T07:28:08.723Z,101135.44
2023-09-23T07:30:36.815Z,101149.72
2023-09-23T07:33:03.949Z,101146.03
2023-09-23T07:35:34.374Z,101147.00
2023-09-23T07:38:02.009Z,101144.28
2023-09-23T07:40:29.954Z,101148.69
2023-09-23T07:42:57.107Z,101154.69
2023-09-23T07:45:23.777Z,101162.88
2023-09-23T07:47:50.431Z,101154.88
2023-09-23T07:50:17.480Z,101171.72
2023-09-23T07:52:44.203Z,101182.22
2023-09-23T07:55:12.026Z,101188.75
2023-09-23T07:57:38.632Z,101187.16
2023-09-23T08:00:06.254Z,101189.47
2023-09-23T08:02:33.365Z,101192.72
2023-09-23T08:05:00.185Z,101200.78
2023-09-23T08:07:27.270Z,101200.59
2023-09-23T08:09:53.895Z,101212.59
2023-09-23T08:12:20.441Z,101216.81
2023-09-23T08:14:46.942Z,101219.47
2023-09-23T08:17:16.018Z,101220.63
2023-09-23T08:19:42.677Z,101218.69
2023-09-23T08:22:09.248Z,101221.38
2023-09-23T08:24:35.744Z,101235.00
2023-09-23T08:27:04.646Z,101240.97
2023-09-23T08:29:31.702Z,101237.59
2023-09-23T08:31:58.257Z,101239.75
2023-09-23T08:34:25.973Z,101247.66
2023-09-23T08:36:53.568Z,101246.31
2023-09-23T08:39:20.514Z,101248.88
2023-09-23T08:41:54.849Z,101254.09
2023-09-23T08:44:23.570Z,101256.31
2023-09-23T08:46:54.722Z,101272.50
2023-09-23T08:49:23.078Z,101267.22
2023-09-23T08:52:09.999Z,101276.34
2023-09-23T08:54:37.261Z,101282.63
2023-09-23T08:57:03.832Z,101275.94
2023-09-23T08:59:32.066Z,101280.31
2023-09-23T09:01:58.626Z,101284.63
2023-09-23T09:04:25.420Z,101277.97
2023-09-23T09:06:53.187Z,101281.56
2023-09-23T09:09:20.340Z,101286.47
2023-09-23T09:11:51.716Z,101291.63
2023-09-23T09:14:18.632Z,101296.56
2023-09-23T09:16:45.186Z,101304.47
2023-09-23T09:19:12.059Z,101312.50
2023-09-23T09:21:38.657Z,101306.56
2023-09-23T09:24:08.186Z,101313.28
2023-09-23T09:26:36.802Z,101315.59
2023-09-23T09:29:04.674Z,101328.25
2023-09-23T09:31:36.157Z,101335.16
2023-09-23T09:34:06.439Z,101336.22
2023-09-23T09:36:35.493Z,101331.31
2023-09-23T09:39:05.732Z,101332.72
2023-09-23T09:41:42.737Z,101336.09
2023-09-23T09:44:09.912Z,101338.16
2023-09-23T09:46:39.590Z,101335.25
2023-09-23T09:49:07.715Z,101340.81
2023-09-23T09:51:37.246Z,101333.47
2023-09-23T09:54:05.353Z,101343.06
2023-09-23T09:56:34.435Z,101339.13
2023-09-23T09:59:02.235Z,101339.66
2023-09-23T10:01:29.839Z,101337.09
2023-09-23T10:03:56.524Z,101343.69
2023-09-23T10:06:24.022Z,101347.16
2023-09-23T10:08:50.755Z,101347.34
2023-09-23T10:11:17.941Z,101347.06
2023-09-23T10:13:44.903Z,101354.50
2023-09-23T10:16:19.148Z,101354.31
2023-09-23T10:18:55.204Z,101354.81
2023-09-23T10:21:24.083Z,101364.47
2023-09-23T10:23:56.820Z,101363.63
2023-09-23T10:26:24.683Z,101363.19
2023-09-23T10:29:02.734Z,101359.81
2023-09-23T10:31:34.043Z,101357.00
2023-09-23T10:34:11.364Z,101374.81
2023-09-23T10:36:38.224Z,101370.06
2023-09-23T10:39:08.740Z,101371.44
2023-09-23T10:41:36.403Z,101382.19
2023-09-23T10:44:06.133Z,101378.22
2023-09-23T10:46:33.444Z,101386.41
2023-09-23T10:49:01.077Z,101396.31
2023-09-23T10:51:28.656Z,101402.88
2023-09-23T10:53:57.144Z,101399.31
2023-09-23T10:56:26.461Z,101404.94
2023-09-23T10:58:53.506Z,101399.25
2023-09-23T11:01:22.179Z,101399.56
2023-09-23T11:03:49.148Z,101409.41
2023-09-23T11:06:17.660Z,101420.59
2023-09-23T11:08:45.274Z,101418.44
2023-09-23T11:11:13.679Z,101413.16
2023-09-23T11:13:41.221Z,101421.91
2023-09-23T11:16:11.568Z,101425.38
2023-09-23T11:18:39.378Z,101429.59
2023-09-23T11:21:06.424Z,101438.31
2023-09-23T11:23:34.931Z,101442.50
2023-09-23T11:26:01.664Z,101430.25
2023-09-23T11:28:28.746Z,101445.91
2023-09-23T11:30:56.790Z,101447.75
2023-09-23T11:33:23.572Z,101457.69
2023-09-23T11:35:50.247Z,101456.75
2023-09-23T11:38:18.271Z,101469.81
2023-09-23T11:40:46.530Z,101471.03
2023-09-23T11:43:13.206Z,101467.81
2023-09-23T11:45:42.282Z,101462.63
2023-09-23T11:48:09.759Z,101470.66
2023-09-23T11:50:37.324Z,101457.84
2023-09-23T11:53:04.285Z,101473.38
2023-09-23T11:55:32.538Z,101470.06
2023-09-23T11:58:01.452Z,101472.00
2023-09-23T12:00:29.555Z,101477.28
2023-09-23T12:02:56.129Z,101466.44
2023-09-23T12:05:28.291Z,101481.44
2023-09-23T12:07:55.109Z,101493.47
2023-09-23T12:10:21.837Z,101495.28
2023-09-23T12:12:48.313Z,101494.81
2023-09-23T12:15:15.195Z,101496.75
2023-09-23T12:17:41.788Z,101494.00
2023-09-23T12:20:15.470Z,101494.88
2023-09-23T12:22:42.499Z,101492.06
2023-09-23T12:25:09.188Z,101496.06
2023-09-23T12:27:36.373Z,101492.44
2023-09-23T12:30:06.772Z,101494.03
2023-09-23T12:32:34.374Z,101500.94
2023-09-23T12:35:01.764Z,101505.97
2023-09-23T12:37:28.704Z,101511.00
2023-09-23T12:39:56.967Z,101507.66
2023-09-23T12:42:31.718Z,101521.41
2023-09-23T12:44:58.206Z,101533.16
2023-09-23T12:47:24.926Z,101542.22
2023-09-23T12:49:51.513Z,101534.28
2023-09-23T12:52:18.083Z,101540.53
2023-09-23T12:57:25.067Z,101541.19
2023-09-23T12:59:51.636Z,101552.63
2023-09-23T13:02:18.295Z,101542.09
2023-09-23T13:04:44.842Z,101546.25
2023-09-23T13:07:11.375Z,101545.16
2023-09-23T13:09:37.910Z,101551.88
2023-09-23T13:12:05.281Z,101555.22
2023-09-23T13:14:33.159Z,101550.31
2023-09-23T13:16:59.744Z,101554.06
2023-09-23T13:19:26.276Z,101562.25
2023-09-23T13:21:52.861Z,101567.53
2023-09-23T13:24:20.345Z,101567.72
2023-09-23T13:26:49.989Z,101575.53
2023-09-23T13:29:18.252Z,101580.81
2023-09-23T13:31:44.946Z,101585.97
2023-09-23T13:34:11.496Z,101597.75
2023-09-23T13:36:38.206Z,101606.41
2023-09-23T13:39:04.770Z,101615.78
2023-09-23T13:41:32.323Z,101611.66
2023-09-23T13:43:59.081Z,101610.44
2023-09-23T13:46:25.692Z,101614.78
2023-09-23T13:48:52.437Z,101616.00
2023-09-23T13:51:19.156Z,101618.66
2023-09-23T13:53:45.963Z,101619.41
2023-09-23T13:56:12.687Z,101624.09
2023-09-23T13:58:39.287Z,101620.47
2023-09-23T14:01:06.169Z,101624.16
2023-09-23T14:03:35.318Z,101631.41
2023-09-23T14:06:05.661Z,101626.81
2023-09-23T14:08:32.534Z,101632.72
2023-09-23T14:10:59.181Z,101640.53
2023-09-23T14:13:25.900Z,101641.47
2023-09-23T14:15:52.577Z,101642.94
2023-09-23T14:18:19.146Z,101647.38
2023-09-23T14:20:46.492Z,101649.06
2023-09-23T14:23:13.933Z,101643.56
2023-09-23T14:25:41.700Z,101652.78
2023-09-23T14:28:08.267Z,101654.97
2023-09-23T14:30:34.940Z,101658.63
2023-09-23T14:33:03.132Z,101663.69
2023-09-23T14:35:29.719Z,101664.28
2023-09-23T14:37:56.401Z,101664.88
2023-09-23T14:40:23.099Z,101671.56
2023-09-23T14:42:49.837Z,101675.41
2023-09-23T14:45:17.719Z,101672.94
2023-09-23T14:47:49.150Z,101679.41
2023-09-23T14:50:16.420Z,101679.97
2023-09-23T14:52:43.101Z,101685.47
2023-09-23T14:55:09.828Z,101689.19
2023-09-23T14:57:36.678Z,101690.44
2023-09-23T15:00:05.888Z,101693.78
2023-09-23T15:02:33.192Z,101700.78
2023-09-23T15:05:00.060Z,101696.94
2023-09-23T15:07:26.632Z,101700.13
2023-09-23T15:09:53.829Z,101713.13
2023-09-23T15:12:20.391Z,101709.41
2023-09-23T15:14:47.640Z,101707.59
2023-09-23T15:17:14.425Z,101720.06
2023-09-23T15:19:41.216Z,101724.53
2023-09-23T15:22:07.809Z,101730.47
2023-09-23T15:24:34.434Z,101727.47
2023-09-23T15:27:01.171Z,101729.47
2023-09-23T15:29:28.389Z,101731.97
2023-09-23T15:31:55.021Z,101730.63
2023-09-23T15:34:23.624Z,101736.63
2023-09-23T15:36:50.563Z,101734.59
2023-09-23T15:39:17.040Z,101739.66
2023-09-23T15:41:44.322Z,101742.81
2023-09-23T15:44:10.920Z,101740.19
2023-09-23T15:46:37.538Z,101747.88
2023-09-23T15:49:04.371Z,101753.66
2023-09-23T15:51:31.554Z,101750.03
2023-09-23T15:53:59.097Z,101757.25
2023-09-23T15:56:26.154Z,101765.41
2023-09-23T15:58:54.098Z,101766.59
2023-09-23T16:01:21.361Z,101785.09
2023-09-23T16:03:48.094Z,101778.84
2023-09-23T16:06:14.733Z,101784.66
2023-09-23T16:08:41.454Z,101775.53
2023-09-23T16:11:09.179Z,101785.72
2023-09-23T16:13:35.726Z,101790.66
2023-09-23T16:16:02.410Z,101782.50
2023-09-23T16:18:29.145Z,101804.91
2023-09-23T16:20:56.087Z,101792.91
2023-09-23T16:23:22.647Z,101802.84
2023-09-23T16:25:49.293Z,101811.00
2023-09-23T16:28:15.784Z,101809.34
2023-09-23T16:30:43.191Z,101804.63
2023-09-23T16:33:09.934Z,101813.75
2023-09-23T16:35:36.860Z,101815.25
2023-09-23T16:38:05.172Z,101816.09
2023-09-23T16:40:31.959Z,101824.09
2023-09-23T16:42:58.743Z,101823.81
2023-09-23T16:45:25.260Z,101823.88
2023-09-23T16:47:51.743Z,101828.31
2023-09-23T16:50:18.594Z,101839.91
2023-09-23T16:52:45.231Z,101844.34
2023-09-23T16:55:11.843Z,101835.59
2023-09-23T16:57:38.376Z,101845.41
2023-09-23T17:00:05.571Z,101849.34
2023-09-23T17:02:32.649Z,101851.75
2023-09-23T17:05:00.150Z,101863.88
2023-09-23T17:07:27.019Z,101865.91
2023-09-23T17:09:54.103Z,101869.47
2023-09-23T17:12:20.679Z,101880.72
2023-09-23T17:14:47.473Z,101877.44
2023-09-23T17:17:14.283Z,101880.28
2023-09-23T17:19:41.518Z,101886.59
2023-09-23T17:22:10.196Z,101893.84
2023-09-23T17:24:37.136Z,101884.47
2023-09-23T17:27:05.828Z,101884.84
2023-09-23T17:29:36.012Z,101886.75
2023-09-23T17:32:04.478Z,101888.50
2023-09-23T17:34:37.944Z,101894.75
2023-09-23T17:37:04.720Z,101906.97
2023-09-23T17:39:32.273Z,101911.19
2023-09-23T17:41:58.818Z,101914.78
2023-09-23T17:44:26.506Z,101911.19
2023-09-23T17:46:53.215Z,101912.88
2023-09-23T17:49:19.768Z,101920.69
2023-09-23T17:51:51.299Z,101931.31
2023-09-23T17:54:17.883Z,101932.28
2023-09-23T17:56:44.413Z,101931.53
2023-09-23T17:59:10.958Z,101934.75
2023-09-23T18:01:37.590Z,101947.50
2023-09-23T18:04:04.513Z,101948.84
2023-09-23T18:06:31.737Z,101945.66
2023-09-23T18:08:58.370Z,101944.25
2023-09-23T18:11:25.176Z,101953.34
2023-09-23T18:13:55.872Z,101952.81
2023-09-23T18:16:22.737Z,101960.97
2023-09-23T18:18:49.463Z,101964.84
2023-09-23T18:21:17.395Z,101968.84
2023-09-23T18:23:45.377Z,101982.28
2023-09-23T18:26:13.552Z,101980.97
2023-09-23T18:28:41.102Z,101983.13
2023-09-23T18:31:10.307Z,101985.81
2023-09-23T18:33:37.121Z,101996.16
2023-09-23T18:36:04.119Z,101997.78
2023-09-23T18:38:30.700Z,102002.03
2023-09-23T18:40:57.570Z,102004.56
2023-09-23T18:43:24.398Z,102003.16
2023-09-23T18:45:51.655Z,102011.22
2023-09-23T18:48:26.884Z,102017.16
2023-09-23T18:50:54.787Z,102019.50
2023-09-23T18:53:22.024Z,102029.69
2023-09-23T18:55:48.958Z,102032.78
2023-09-23T18:58:15.799Z,102029.16
2023-09-23T19:00:44.036Z,102033.53
2023-09-23T19:03:10.973Z,102032.69
2023-09-23T19:05:39.153Z,102038.81
2023-09-23T19:08:06.645Z,102043.22
2023-09-23T19:10:33.577Z,102054.03
2023-09-23T19:13:00.221Z,102057.03
2023-09-23T19:15:26.777Z,102062.47
2023-09-23T19:17:53.836Z,102071.19
2023-09-23T19:20:20.386Z,102067.06
2023-09-23T19:22:48.242Z,102067.22
2023-09-23T19:25:15.950Z,102071.06
2023-09-23T19:27:44.027Z,102074.13
2023-09-23T19:30:16.568Z,102079.00
2023-09-23T19:32:43.534Z,102085.59
2023-09-23T19:35:10.913Z,102088.56
2023-09-23T19:37:38.987Z,102089.63
2023-09-23T19:40:06.829Z,102090.69
2023-09-23T19:42:34.453Z,102089.16
2023-09-23T19:45:04.431Z,102092.13
2023-09-23T19:47:32.260Z,102102.06
2023-09-23T19:50:00.569Z,102105.78
2023-09-23T19:52:30.534Z,102108.56
2023-09-23T19:54:57.316Z,102112.97
2023-09-23T19:57:23.807Z,102113.03
2023-09-23T19:59:50.339Z,102124.94
2023-09-23T20:02:17.001Z,102121.59
2023-09-23T20:04:46.140Z,102121.00
2023-09-23T20:07:17.454Z,102132.66
2023-09-23T20:09:44.091Z,102127.66
2023-09-23T20:12:17.627Z,102132.31
2023-09-23T20:14:44.407Z,102136.03
2023-09-23T20:17:12.514Z,102139.66
2023-09-23T20:19:39.373Z,102139.66
2023-09-23T20:22:06.991Z,102144.00
2023-09-23T20:24:34.537Z,102150.25
2023-09-23T20:27:03.286Z,102149.78
2023-09-23T20:29:29.994Z,102148.34
2023-09-23T20:31:56.982Z,102149.34
2023-09-23T20:34:25.155Z,102154.75
2023-09-23T20:36:51.674Z,102165.34
2023-09-23T20:39:21.220Z,102161.00
2023-09-23T20:41:48.990Z,102160.16
2023-09-23T20:44:16.337Z,102169.75
2023-09-23T20:46:42.847Z,102171.28
2023-09-23T20:49:09.519Z,102171.19
2023-09-23T20:51:36.166Z,102169.19
2023-09-23T20:54:02.974Z,102172.59
2023-09-23T20:56:29.499Z,102165.53
2023-09-23T20:58:57.769Z,102169.75
2023-09-23T21:01:26.758Z,102177.63
2023-09-23T21:03:54.030Z,102179.56
2023-09-23T21:06:20.902Z,102178.78
2023-09-23T21:08:49.245Z,102179.91
2023-09-23T21:11:16.276Z,102186.41
2023-09-23T21:13:43.019Z,102186.56
2023-09-23T21:16:10.637Z,102192.84
2023-09-23T21:18:37.198Z,102194.00
2023-09-23T21:21:04.422Z,102195.97
2023-09-23T21:23:31.028Z,102195.44
2023-09-23T21:25:57.625Z,102202.75
2023-09-23T21:28:24.332Z,102216.03
2023-09-23T21:30:52.341Z,102210.97
2023-09-23T21:33:19.211Z,102218.88
2023-09-23T21:35:45.882Z,102218.19
2023-09-23T21:38:12.521Z,102223.72
2023-09-23T21:40:41.103Z,102217.84
2023-09-23T21:43:08.968Z,102218.16
2023-09-23T21:45:35.590Z,102228.00
2023-09-23T21:48:02.630Z,102232.63
2023-09-23T21:50:30.004Z,102230.25
2023-09-23T21:52:56.652Z,102238.19
2023-09-23T21:55:23.160Z,102241.72
2023-09-23T21:57:49.897Z,102247.06
2023-09-23T22:00:29.042Z,102242.88
2023-09-23T22:03:00.511Z,102255.25
2023-09-23T22:05:29.195Z,102252.78
2023-09-23T22:07:58.771Z,102254.66
2023-09-23T22:10:27.615Z,102262.69
2023-09-23T22:12:54.682Z,102258.44
2023-09-23T22:15:22.005Z,102252.53
2023-09-23T22:17:49.122Z,102251.81
2023-09-23T22:20:18.642Z,102257.91
2023-09-23T22:22:46.086Z,102251.06
2023-09-23T22:25:16.381Z,102252.03
2023-09-23T22:27:43.659Z,102254.00
2023-09-23T22:30:18.786Z,102249.75
2023-09-23T22:32:46.860Z,102248.19
2023-09-23T22:35:14.347Z,102250.75
2023-09-23T22:37:44.015Z,102246.47
2023-09-23T22:40:15.264Z,102248.31
2023-09-23T22:42:42.644Z,102257.09
2023-09-23T22:45:20.420Z,102256.47
2023-09-23T22:47:51.078Z,102258.38
2023-09-23T22:50:19.788Z,102265.47
2023-09-23T22:52:46.373Z,102266.53
2023-09-23T22:55:14.490Z,102265.69
2023-09-23T22:57:52.120Z,102260.56
2023-09-23T23:00:27.132Z,102271.25
2023-09-23T23:02:55.989Z,102277.47
2023-09-23T23:05:27.687Z,102268.91
2023-09-23T23:07:57.157Z,102276.88
2023-09-23T23:10:23.676Z,102266.50
2023-09-23T23:12:50.398Z,102273.53
2023-09-23T23:15:18.041Z,102278.06
2023-09-23T23:17:47.425Z,102274.75
2023-09-23T23:20:25.292Z,102284.41
2023-09-23T23:22:56.446Z,102276.63
2023-09-23T23:25:27.094Z,102282.75
2023-09-23T23:27:53.816Z,102275.94
2023-09-23T23:30:21.668Z,102275.06
2023-09-23T23:32:49.694Z,102284.72
2023-09-23T23:35:26.412Z,102275.28
2023-09-23T23:37:52.920Z,102282.31
2023-09-23T23:40:24.245Z,102278.97
2023-09-23T23:42:51.701Z,102286.94
2023-09-23T23:45:20.708Z,102281.03
2023-09-23T23:47:48.078Z,102285.59
2023-09-23T23:50:17.561Z,102284.72
2023-09-23T23:52:47.155Z,102288.34
2023-09-23T23:55:13.893Z,102286.00
2023-09-23T23:57:40.850Z,102292.25
